sensor_id;sensor_type;location;lat;lon;timestamp;pressure;altitude;pressure_sealevel;temperature;humidity
71057;BME280;58380;48.312;9.246;2022-09-14T07:32:03;92792.41;;;17.82;95.04
71057;BME280;58380;48.312;9.246;2022-09-14T07:34:29;92773.22;;;17.88;94.50
71057;BME280;58380;48.312;9.246;2022-09-14T07:36:54;92847.34;;;18.42;94.08
71057;BME280;58380;48.312;9.246;2022-09-14T07:39:20;92857.91;;;18.60;92.80
71057;BME280;58380;48.312;9.246;2022-09-14T07:41:45;92855.56;;;18.79;91.85
71057;BME280;58380;48.312;9.246;2022-09-14T07:44:16;92858.75;;;18.93;89.71
71057;BME280;58380;48.312;9.246;2022-09-14T07:46:43;92850.31;;;19.04;88.70
71057;BME280;58380;48.312;9.246;2022-09-14T07:49:10;92843.16;;;18.95;89.05
71057;BME280;58380;48.312;9.246;2022-09-14T07:51:36;92786.97;;;18.62;89.36
71057;BME280;58380;48.312;9.246;2022-09-14T07:54:05;92791.66;;;18.65;87.26
71057;BME280;58380;48.312;9.246;2022-09-14T07:56:32;92848.78;;;19.15;87.20
71057;BME280;58380;48.312;9.246;2022-09-14T07:58:59;92862.63;;;19.29;88.02
71057;BME280;58380;48.312;9.246;2022-09-14T08:01:25;92871.72;;;19.37;88.09
71057;BME280;58380;48.312;9.246;2022-09-14T08:03:53;92837.22;;;19.23;87.33
71057;BME280;58380;48.312;9.246;2022-09-14T08:06:22;92881.91;;;19.56;86.40
71057;BME280;58380;48.312;9.246;2022-09-14T08:08:51;92828.66;;;19.30;85.69
71057;BME280;58380;48.312;9.246;2022-09-14T08:11:29;92876.94;;;19.79;83.75
71057;BME280;58380;48.312;9.246;2022-09-14T08:13:57;92845.31;;;19.60;85.16
71057;BME280;58380;48.312;9.246;2022-09-14T08:16:26;92877.53;;;19.85;82.34
71057;BME280;58380;48.312;9.246;2022-09-14T08:18:55;92900.28;;;20.03;83.99
71057;BME280;58380;48.312;9.246;2022-09-14T08:21:23;92898.28;;;20.12;83.96
71057;BME280;58380;48.312;9.246;2022-09-14T08:23:51;92878.09;;;20.15;81.37
71057;BME280;58380;48.312;9.246;2022-09-14T08:26:17;92900.50;;;20.35;81.54
71057;BME280;58380;48.312;9.246;2022-09-14T08:28:45;92896.16;;;20.30;80.01
71057;BME280;58380;48.312;9.246;2022-09-14T08:31:18;92904.66;;;20.32;81.64
71057;BME280;58380;48.312;9.246;2022-09-14T08:33:50;92876.41;;;20.22;80.43
71057;BME280;58380;48.312;9.246;2022-09-14T08:36:19;92851.16;;;19.99;80.19
71057;BME280;58380;48.312;9.246;2022-09-14T08:38:46;92910.03;;;20.57;80.88
71057;BME280;58380;48.312;9.246;2022-09-14T08:46:59;92908.13;;;20.57;78.32
71057;BME280;58380;48.312;9.246;2022-09-14T08:49:47;92911.91;;;20.56;80.20
71057;BME280;58380;48.312;9.246;2022-09-14T08:52:24;92895.38;;;20.42;80.37
71057;BME280;58380;48.312;9.246;2022-09-14T08:54:56;92891.03;;;20.25;82.04
71057;BME280;58380;48.312;9.246;2022-09-14T09:00:09;92884.53;;;20.14;81.06
71057;BME280;58380;48.312;9.246;2022-09-14T09:05:31;92914.00;;;20.38;80.88
71057;BME280;58380;48.312;9.246;2022-09-14T09:10:49;92914.31;;;20.86;79.35
71057;BME280;58380;48.312;9.246;2022-09-14T09:13:21;92890.16;;;20.86;77.34
71057;BME280;58380;48.312;9.246;2022-09-14T09:15:52;92906.53;;;21.09;73.05
71057;BME280;58380;48.312;9.246;2022-09-14T09:18:45;92916.59;;;21.12;73.26
71057;BME280;58380;48.312;9.246;2022-09-14T09:21:17;92913.44;;;21.22;73.72
71057;BME280;58380;48.312;9.246;2022-09-14T09:24:29;92915.66;;;21.20;72.28
71057;BME280;58380;48.312;9.246;2022-09-14T09:27:14;92877.06;;;20.97;71.88
71057;BME280;58380;48.312;9.246;2022-09-14T09:29:41;92886.09;;;21.04;71.99
71057;BME280;58380;48.312;9.246;2022-09-14T09:32:33;92911.31;;;21.16;71.77
71057;BME280;58380;48.312;9.246;2022-09-14T09:35:04;92903.47;;;21.23;70.88
71057;BME280;58380;48.312;9.246;2022-09-14T09:37:33;92875.22;;;21.13;72.23
71057;BME280;58380;48.312;9.246;2022-09-14T09:40:12;92903.66;;;21.30;72.43
71057;BME280;58380;48.312;9.246;2022-09-14T09:43:09;92896.38;;;21.30;70.49
71057;BME280;58380;48.312;9.246;2022-09-14T09:48:30;92865.19;;;21.26;70.13
71057;BME280;58380;48.312;9.246;2022-09-14T09:51:09;92880.25;;;21.43;70.02
71057;BME280;58380;48.312;9.246;2022-09-14T09:53:48;92867.53;;;21.40;69.55
71057;BME280;58380;48.312;9.246;2022-09-14T09:56:19;92854.09;;;21.40;69.21
71057;BME280;58380;48.312;9.246;2022-09-14T09:58:47;92814.91;;;21.23;68.72
71057;BME280;58380;48.312;9.246;2022-09-14T10:01:34;92815.25;;;21.37;67.26
71057;BME280;58380;48.312;9.246;2022-09-14T10:04:04;92851.00;;;21.69;67.24
71057;BME280;58380;48.312;9.246;2022-09-14T10:06:46;92829.59;;;21.73;67.63
71057;BME280;58380;48.312;9.246;2022-09-14T10:09:16;92834.38;;;21.80;66.30
71057;BME280;58380;48.312;9.246;2022-09-14T10:11:44;92844.84;;;21.85;64.54
71057;BME280;58380;48.312;9.246;2022-09-14T10:14:31;92812.88;;;21.64;66.58
71057;BME280;58380;48.312;9.246;2022-09-14T10:17:18;92837.91;;;21.84;66.02
71057;BME280;58380;48.312;9.246;2022-09-14T10:19:50;92827.25;;;21.71;67.64
71057;BME280;58380;48.312;9.246;2022-09-14T10:22:27;92830.91;;;21.79;66.08
71057;BME280;58380;48.312;9.246;2022-09-14T10:25:21;92796.94;;;21.71;67.46
71057;BME280;58380;48.312;9.246;2022-09-14T10:30:30;92819.78;;;21.96;67.65
71057;BME280;58380;48.312;9.246;2022-09-14T10:33:06;92809.19;;;22.04;66.23
71057;BME280;58380;48.312;9.246;2022-09-14T10:35:56;92815.63;;;22.15;66.06
71057;BME280;58380;48.312;9.246;2022-09-14T10:38:52;92815.63;;;22.15;66.19
71057;BME280;58380;48.312;9.246;2022-09-14T10:50:23;92791.25;;;22.24;67.91
71057;BME280;58380;48.312;9.246;2022-09-14T10:56:05;92783.81;;;22.01;66.58
71057;BME280;58380;48.312;9.246;2022-09-14T11:10:18;92756.06;;;21.46;67.27
71057;BME280;58380;48.312;9.246;2022-09-14T11:12:54;92796.56;;;21.57;68.60
71057;BME280;58380;48.312;9.246;2022-09-14T11:16:01;92794.41;;;21.46;71.24
71057;BME280;58380;48.312;9.246;2022-09-14T11:22:17;92797.13;;;21.02;75.56
71057;BME280;58380;48.312;9.246;2022-09-14T11:25:23;92802.38;;;20.71;77.98
71057;BME280;58380;48.312;9.246;2022-09-14T11:28:00;92794.88;;;20.23;80.55
71057;BME280;58380;48.312;9.246;2022-09-14T11:30:44;92808.53;;;19.94;77.65
71057;BME280;58380;48.312;9.246;2022-09-14T11:33:25;92793.78;;;19.63;79.58
71057;BME280;58380;48.312;9.246;2022-09-14T11:36:06;92766.22;;;19.26;80.82
71057;BME280;58380;48.312;9.246;2022-09-14T11:41:52;92796.63;;;19.21;85.32
71057;BME280;58380;48.312;9.246;2022-09-14T11:44:31;92763.94;;;19.03;84.45
71057;BME280;58380;48.312;9.246;2022-09-14T11:52:16;92783.59;;;19.32;84.46
71057;BME280;58380;48.312;9.246;2022-09-14T11:54:48;92781.28;;;19.30;84.08
71057;BME280;58380;48.312;9.246;2022-09-14T11:57:26;92758.66;;;18.94;83.68
71057;BME280;58380;48.312;9.246;2022-09-14T11:59:58;92775.28;;;18.88;84.64
71057;BME280;58380;48.312;9.246;2022-09-14T12:12:43;92813.59;;;19.25;84.30
71057;BME280;58380;48.312;9.246;2022-09-14T12:15:17;92788.13;;;19.07;81.97
71057;BME280;58380;48.312;9.246;2022-09-14T12:17:47;92820.53;;;19.38;82.68
71057;BME280;58380;48.312;9.246;2022-09-14T12:26:12;92814.19;;;19.43;81.43
71057;BME280;58380;48.312;9.246;2022-09-14T12:28:56;92782.94;;;19.23;81.08
71057;BME280;58380;48.312;9.246;2022-09-14T12:31:36;92805.56;;;19.25;82.77
71057;BME280;58380;48.312;9.246;2022-09-14T12:34:24;92809.59;;;19.31;81.98
71057;BME280;58380;48.312;9.246;2022-09-14T12:39:30;92816.53;;;19.45;80.99
71057;BME280;58380;48.312;9.246;2022-09-14T12:42:00;92810.94;;;19.37;78.88
71057;BME280;58380;48.312;9.246;2022-09-14T12:44:49;92827.63;;;19.34;80.24
71057;BME280;58380;48.312;9.246;2022-09-14T12:49:49;92829.84;;;19.20;80.55
71057;BME280;58380;48.312;9.246;2022-09-14T12:56:03;92820.59;;;19.17;79.55
71057;BME280;58380;48.312;9.246;2022-09-14T13:04:03;92784.16;;;19.25;77.85
71057;BME280;58380;48.312;9.246;2022-09-14T13:06:42;92792.78;;;19.43;78.98
71057;BME280;58380;48.312;9.246;2022-09-14T13:09:19;92817.69;;;19.68;76.74
71057;BME280;58380;48.312;9.246;2022-09-14T13:11:55;92815.31;;;19.67;79.65
71057;BME280;58380;48.312;9.246;2022-09-14T13:14:30;92798.91;;;19.56;77.03
71057;BME280;58380;48.312;9.246;2022-09-14T13:17:03;92826.63;;;19.72;77.14
71057;BME280;58380;48.312;9.246;2022-09-14T13:19:36;92794.34;;;19.56;77.26
71057;BME280;58380;48.312;9.246;2022-09-14T13:22:01;92816.66;;;19.60;75.59
71057;BME280;58380;48.312;9.246;2022-09-14T13:27:03;92812.97;;;19.65;77.04
71057;BME280;58380;48.312;9.246;2022-09-14T13:29:35;92796.91;;;19.65;76.87
71057;BME280;58380;48.312;9.246;2022-09-14T13:32:01;92744.25;;;19.32;75.16
71057;BME280;58380;48.312;9.246;2022-09-14T13:34:30;92800.34;;;19.53;75.51
71057;BME280;58380;48.312;9.246;2022-09-14T13:36:59;92731.59;;;18.96;74.89
71057;BME280;58380;48.312;9.246;2022-09-14T13:39:32;92811.72;;;19.38;75.12
71057;BME280;58380;48.312;9.246;2022-09-14T13:42:00;92824.97;;;19.34;76.61
71057;BME280;58380;48.312;9.246;2022-09-14T13:44:34;92824.50;;;19.20;76.20
71057;BME280;58380;48.312;9.246;2022-09-14T13:47:06;92816.97;;;19.01;74.76
71057;BME280;58380;48.312;9.246;2022-09-14T13:49:34;92826.34;;;18.95;76.43
71057;BME280;58380;48.312;9.246;2022-09-14T13:52:36;92833.16;;;19.05;76.46
71057;BME280;58380;48.312;9.246;2022-09-14T14:03:30;92780.88;;;18.74;77.15
71057;BME280;58380;48.312;9.246;2022-09-14T14:06:27;92827.44;;;18.94;77.67
71057;BME280;58380;48.312;9.246;2022-09-14T14:09:02;92826.34;;;18.95;78.35
71057;BME280;58380;48.312;9.246;2022-09-14T14:11:36;92819.84;;;18.96;77.33
71057;BME280;58380;48.312;9.246;2022-09-14T14:14:19;92801.31;;;18.79;75.59
71057;BME280;58380;48.312;9.246;2022-09-14T14:17:23;92800.56;;;18.69;75.68
71057;BME280;58380;48.312;9.246;2022-09-14T14:19:56;92833.19;;;18.84;75.47
71057;BME280;58380;48.312;9.246;2022-09-14T14:22:27;92770.75;;;18.46;75.42
71057;BME280;58380;48.312;9.246;2022-09-14T14:24:56;92812.38;;;18.89;75.03
71057;BME280;58380;48.312;9.246;2022-09-14T14:27:32;92829.56;;;19.01;74.74
71057;BME280;58380;48.312;9.246;2022-09-14T14:30:19;92833.63;;;18.86;74.41
71057;BME280;58380;48.312;9.246;2022-09-14T14:32:49;92840.22;;;18.67;75.92
71057;BME280;58380;48.312;9.246;2022-09-14T14:35:19;92848.50;;;18.53;76.94
71057;BME280;58380;48.312;9.246;2022-09-14T14:37:46;92847.38;;;18.13;77.52
71057;BME280;58380;48.312;9.246;2022-09-14T14:40:13;92868.53;;;17.88;79.35
71057;BME280;58380;48.312;9.246;2022-09-14T14:42:40;92860.47;;;17.50;81.28
71057;BME280;58380;48.312;9.246;2022-09-14T14:45:12;92856.94;;;17.28;83.74
71057;BME280;58380;48.312;9.246;2022-09-14T14:47:41;92853.72;;;17.05;85.92
71057;BME280;58380;48.312;9.246;2022-09-14T14:50:16;92857.03;;;16.93;88.58
71057;BME280;58380;48.312;9.246;2022-09-14T14:52:43;92878.81;;;16.95;90.44
71057;BME280;58380;48.312;9.246;2022-09-14T14:55:08;92881.00;;;16.85;90.81
71057;BME280;58380;48.312;9.246;2022-09-14T14:57:34;92849.16;;;16.62;90.94
71057;BME280;58380;48.312;9.246;2022-09-14T15:00:02;92862.16;;;16.72;91.00
71057;BME280;58380;48.312;9.246;2022-09-14T15:02:29;92843.38;;;16.25;91.32
71057;BME280;58380;48.312;9.246;2022-09-14T15:04:54;92836.16;;;16.34;92.67
71057;BME280;58380;48.312;9.246;2022-09-14T15:07:20;92849.00;;;16.50;92.03
71057;BME280;58380;48.312;9.246;2022-09-14T15:09:45;92837.09;;;16.38;90.40
71057;BME280;58380;48.312;9.246;2022-09-14T15:12:11;92818.75;;;16.37;89.71
71057;BME280;58380;48.312;9.246;2022-09-14T15:14:37;92779.44;;;16.08;89.17
71057;BME280;58380;48.312;9.246;2022-09-14T15:17:02;92838.97;;;16.47;91.28
71057;BME280;58380;48.312;9.246;2022-09-14T15:19:28;92818.28;;;16.44;90.95
71057;BME280;58380;48.312;9.246;2022-09-14T15:21:54;92811.56;;;16.46;90.88
71057;BME280;58380;48.312;9.246;2022-09-14T15:24:20;92822.34;;;16.67;90.38
71057;BME280;58380;48.312;9.246;2022-09-14T15:26:45;92822.38;;;16.58;89.37
71057;BME280;58380;48.312;9.246;2022-09-14T15:29:11;92826.59;;;16.68;89.13
71057;BME280;58380;48.312;9.246;2022-09-14T15:31:42;92821.28;;;16.68;88.91
71057;BME280;58380;48.312;9.246;2022-09-14T15:34:08;92785.53;;;16.60;89.82
71057;BME280;58380;48.312;9.246;2022-09-14T15:39:10;92788.00;;;16.92;89.33
71057;BME280;58380;48.312;9.246;2022-09-14T15:41:37;92782.97;;;16.99;87.08
71057;BME280;58380;48.312;9.246;2022-09-14T15:44:03;92785.47;;;17.13;88.09
71057;BME280;58380;48.312;9.246;2022-09-14T15:46:29;92753.81;;;17.02;87.11
71057;BME280;58380;48.312;9.246;2022-09-14T15:48:56;92697.88;;;16.76;87.62
71057;BME280;58380;48.312;9.246;2022-09-14T15:51:21;92747.19;;;17.17;88.59
71057;BME280;58380;48.312;9.246;2022-09-14T15:53:47;92724.94;;;17.04;88.66
71057;BME280;58380;48.312;9.246;2022-09-14T15:56:14;92765.63;;;17.31;88.73
71057;BME280;58380;48.312;9.246;2022-09-14T15:58:40;92707.69;;;17.02;88.13
71057;BME280;58380;48.312;9.246;2022-09-14T16:01:11;92699.44;;;16.86;85.89
71057;BME280;58380;48.312;9.246;2022-09-14T16:03:39;92728.41;;;17.05;85.63
71057;BME280;58380;48.312;9.246;2022-09-14T16:06:10;92759.41;;;17.18;86.47
71057;BME280;58380;48.312;9.246;2022-09-14T16:08:37;92704.81;;;16.69;85.97
71057;BME280;58380;48.312;9.246;2022-09-14T16:11:05;92756.31;;;17.08;86.32
71057;BME280;58380;48.312;9.246;2022-09-14T16:13:32;92739.56;;;16.98;86.22
71057;BME280;58380;48.312;9.246;2022-09-14T16:16:14;92741.69;;;17.14;88.45
71057;BME280;58380;48.312;9.246;2022-09-14T16:18:41;92691.31;;;16.83;88.29
71057;BME280;58380;48.312;9.246;2022-09-14T16:21:21;92749.22;;;17.12;86.22
71057;BME280;58380;48.312;9.246;2022-09-14T16:23:51;92732.50;;;17.02;87.26
71057;BME280;58380;48.312;9.246;2022-09-14T16:26:25;92741.56;;;17.10;86.70
71057;BME280;58380;48.312;9.246;2022-09-14T16:28:52;92741.25;;;17.03;86.56
71057;BME280;58380;48.312;9.246;2022-09-14T16:31:22;92744.50;;;17.17;88.29
71057;BME280;58380;48.312;9.246;2022-09-14T16:33:53;92746.09;;;17.10;87.83
71057;BME280;58380;48.312;9.246;2022-09-14T16:36:32;92725.16;;;16.91;88.56
71057;BME280;58380;48.312;9.246;2022-09-14T16:39:02;92700.59;;;16.68;88.32
71057;BME280;58380;48.312;9.246;2022-09-14T16:41:29;92711.53;;;16.84;89.65
71057;BME280;58380;48.312;9.246;2022-09-14T16:43:56;92738.91;;;17.01;89.14
71057;BME280;58380;48.312;9.246;2022-09-14T16:46:22;92745.66;;;16.99;88.92
71057;BME280;58380;48.312;9.246;2022-09-14T16:48:49;92729.84;;;16.94;88.80
71057;BME280;58380;48.312;9.246;2022-09-14T16:51:16;92730.31;;;16.96;88.63
71057;BME280;58380;48.312;9.246;2022-09-14T16:53:44;92730.31;;;16.96;89.56
71057;BME280;58380;48.312;9.246;2022-09-14T16:56:14;92719.81;;;16.91;89.63
71057;BME280;58380;48.312;9.246;2022-09-14T16:58:42;92726.41;;;16.93;89.63
71057;BME280;58380;48.312;9.246;2022-09-14T17:03:42;92721.06;;;16.85;89.35
71057;BME280;58380;48.312;9.246;2022-09-14T17:06:14;92677.56;;;16.54;89.80
71057;BME280;58380;48.312;9.246;2022-09-14T17:08:41;92714.66;;;16.77;90.22
71057;BME280;58380;48.312;9.246;2022-09-14T17:11:09;92677.09;;;16.52;90.06
71057;BME280;58380;48.312;9.246;2022-09-14T17:13:35;92715.28;;;16.74;89.98
71057;BME280;58380;48.312;9.246;2022-09-14T17:16:03;92690.41;;;16.61;90.31
71057;BME280;58380;48.312;9.246;2022-09-14T17:18:35;92709.97;;;16.74;90.76
71057;BME280;58380;48.312;9.246;2022-09-14T17:21:07;92690.72;;;16.59;90.64
71057;BME280;58380;48.312;9.246;2022-09-14T17:23:34;92645.19;;;16.26;90.26
71057;BME280;58380;48.312;9.246;2022-09-14T17:26:02;92716.88;;;16.66;89.83
71057;BME280;58380;48.312;9.246;2022-09-14T17:28:30;92667.44;;;16.30;89.39
71057;BME280;58380;48.312;9.246;2022-09-14T17:30:58;92663.72;;;16.23;90.11
71057;BME280;58380;48.312;9.246;2022-09-14T17:33:25;92704.06;;;16.51;90.23
71057;BME280;58380;48.312;9.246;2022-09-14T17:35:53;92712.69;;;16.48;90.01
71057;BME280;58380;48.312;9.246;2022-09-14T17:38:23;92705.34;;;16.36;90.15
71057;BME280;58380;48.312;9.246;2022-09-14T17:40:51;92661.97;;;16.09;89.98
71057;BME280;58380;48.312;9.246;2022-09-14T17:43:17;92729.00;;;16.37;90.30
71057;BME280;58380;48.312;9.246;2022-09-14T17:45:53;92735.88;;;16.30;91.05
71057;BME280;58380;48.312;9.246;2022-09-14T17:48:20;92705.38;;;16.01;91.68
71057;BME280;58380;48.312;9.246;2022-09-14T17:50:47;92737.94;;;16.15;91.91
71057;BME280;58380;48.312;9.246;2022-09-14T17:53:13;92746.09;;;16.10;92.21
71057;BME280;58380;48.312;9.246;2022-09-14T17:55:39;92745.00;;;16.03;91.91
71057;BME280;58380;48.312;9.246;2022-09-14T17:58:04;92705.63;;;15.65;91.57
71057;BME280;58380;48.312;9.246;2022-09-14T18:00:30;92736.69;;;15.78;91.22
71057;BME280;58380;48.312;9.246;2022-09-14T18:02:56;92732.22;;;15.65;91.08
71057;BME280;58380;48.312;9.246;2022-09-14T18:05:21;92740.25;;;15.73;90.26
71057;BME280;58380;48.312;9.246;2022-09-14T18:07:47;92755.44;;;15.73;90.11
71057;BME280;58380;48.312;9.246;2022-09-14T18:10:12;92773.59;;;15.80;90.33
71057;BME280;58380;48.312;9.246;2022-09-14T18:12:43;92728.94;;;15.59;89.32
71057;BME280;58380;48.312;9.246;2022-09-14T18:15:10;92760.28;;;15.80;90.56
71057;BME280;58380;48.312;9.246;2022-09-14T18:17:37;92683.47;;;15.12;90.33
71057;BME280;58380;48.312;9.246;2022-09-14T18:20:03;92758.03;;;15.56;90.23
71057;BME280;58380;48.312;9.246;2022-09-14T18:22:29;92745.81;;;15.46;90.51
71057;BME280;58380;48.312;9.246;2022-09-14T18:24:55;92755.06;;;15.57;90.45
71057;BME280;58380;48.312;9.246;2022-09-14T18:27:20;92735.00;;;15.42;91.29
71057;BME280;58380;48.312;9.246;2022-09-14T18:29:46;92776.03;;;15.59;91.58
71057;BME280;58380;48.312;9.246;2022-09-14T18:32:11;92741.22;;;15.29;91.92
71057;BME280;58380;48.312;9.246;2022-09-14T18:34:37;92765.19;;;15.38;92.32
71057;BME280;58380;48.312;9.246;2022-09-14T18:37:02;92749.19;;;15.29;92.79
71057;BME280;58380;48.312;9.246;2022-09-14T18:39:28;92754.22;;;15.30;92.92
71057;BME280;58380;48.312;9.246;2022-09-14T18:41:54;92701.66;;;14.87;92.90
71057;BME280;58380;48.312;9.246;2022-09-14T18:44:21;92690.06;;;14.75;93.21
71057;BME280;58380;48.312;9.246;2022-09-14T18:46:47;92689.69;;;14.59;93.48
71057;BME280;58380;48.312;9.246;2022-09-14T18:49:15;92793.44;;;15.25;94.20
71057;BME280;58380;48.312;9.246;2022-09-14T18:51:41;92709.25;;;14.72;93.97
71057;BME280;58380;48.312;9.246;2022-09-14T18:54:09;92722.91;;;14.87;94.02
71057;BME280;58380;48.312;9.246;2022-09-14T18:56:37;92749.28;;;15.06;94.41
71057;BME280;58380;48.312;9.246;2022-09-14T18:59:05;92741.28;;;14.98;94.32
71057;BME280;58380;48.312;9.246;2022-09-14T19:01:34;92780.47;;;15.23;94.40
71057;BME280;58380;48.312;9.246;2022-09-14T19:04:02;92777.19;;;15.26;94.17
71057;BME280;58380;48.312;9.246;2022-09-14T19:06:29;92781.25;;;15.24;94.59
71057;BME280;58380;48.312;9.246;2022-09-14T19:08:56;92692.84;;;14.70;94.78
71057;BME280;58380;48.312;9.246;2022-09-14T19:11:24;92773.75;;;15.26;94.71
71057;BME280;58380;48.312;9.246;2022-09-14T19:14:05;92658.44;;;14.56;94.74
71057;BME280;58380;48.312;9.246;2022-09-14T19:16:37;92611.34;;;14.16;94.63
71057;BME280;58380;48.312;9.246;2022-09-14T19:19:05;92756.47;;;15.06;94.46
71057;BME280;58380;48.312;9.246;2022-09-14T19:21:33;92708.00;;;14.69;94.70
71057;BME280;58380;48.312;9.246;2022-09-14T19:24:02;92718.63;;;14.69;94.75
71057;BME280;58380;48.312;9.246;2022-09-14T19:26:36;92732.41;;;14.71;94.86
71057;BME280;58380;48.312;9.246;2022-09-14T19:29:07;92767.16;;;14.83;95.27
71057;BME280;58380;48.312;9.246;2022-09-14T19:31:33;92782.63;;;14.90;95.70
71057;BME280;58380;48.312;9.246;2022-09-14T19:34:00;92741.69;;;14.60;95.50
71057;BME280;58380;48.312;9.246;2022-09-14T19:36:27;92726.69;;;14.55;95.91
71057;BME280;58380;48.312;9.246;2022-09-14T19:38:54;92695.59;;;14.33;95.90
71057;BME280;58380;48.312;9.246;2022-09-14T19:41:22;92776.41;;;14.95;96.10
71057;BME280;58380;48.312;9.246;2022-09-14T19:43:49;92800.41;;;15.12;96.19
71057;BME280;58380;48.312;9.246;2022-09-14T19:46:17;92799.63;;;15.12;96.31
71057;BME280;58380;48.312;9.246;2022-09-14T19:48:44;92731.38;;;14.58;96.02
71057;BME280;58380;48.312;9.246;2022-09-14T19:51:13;92707.00;;;14.56;95.55
71057;BME280;58380;48.312;9.246;2022-09-14T19:53:41;92807.97;;;15.19;95.45
71057;BME280;58380;48.312;9.246;2022-09-14T19:56:07;92802.94;;;15.17;95.55
71057;BME280;58380;48.312;9.246;2022-09-14T19:58:41;92772.69;;;14.96;95.73
71057;BME280;58380;48.312;9.246;2022-09-14T20:01:09;92733.66;;;14.74;95.49
71057;BME280;58380;48.312;9.246;2022-09-14T20:03:35;92783.41;;;15.13;95.87
71057;BME280;58380;48.312;9.246;2022-09-14T20:06:08;92729.44;;;14.73;96.03
71057;BME280;58380;48.312;9.246;2022-09-14T20:08:50;92795.91;;;15.13;96.22
71057;BME280;58380;48.312;9.246;2022-09-14T20:11:43;92779.47;;;15.10;96.17
71057;BME280;58380;48.312;9.246;2022-09-14T20:14:12;92693.34;;;14.49;95.98
71057;BME280;58380;48.312;9.246;2022-09-14T20:16:42;92760.19;;;15.05;96.40
71057;BME280;58380;48.312;9.246;2022-09-14T20:19:18;92669.09;;;14.42;96.54
71057;BME280;58380;48.312;9.246;2022-09-14T20:21:46;92664.88;;;14.41;96.53
71057;BME280;58380;48.312;9.246;2022-09-14T20:24:15;92749.84;;;14.95;96.94
71057;BME280;58380;48.312;9.246;2022-09-14T20:26:45;92650.78;;;14.32;96.73
71057;BME280;58380;48.312;9.246;2022-09-14T20:29:12;92762.69;;;15.01;97.00
71057;BME280;58380;48.312;9.246;2022-09-14T20:31:38;92737.75;;;14.80;97.31
71057;BME280;58380;48.312;9.246;2022-09-14T20:34:04;92697.47;;;14.55;97.95
71057;BME280;58380;48.312;9.246;2022-09-14T20:36:29;92737.50;;;14.67;97.54
71057;BME280;58380;48.312;9.246;2022-09-14T20:38:56;92691.31;;;14.23;97.67
71057;BME280;58380;48.312;9.246;2022-09-14T20:41:28;92751.91;;;14.66;97.49
71057;BME280;58380;48.312;9.246;2022-09-14T20:43:55;92767.97;;;14.61;97.83
71057;BME280;58380;48.312;9.246;2022-09-14T20:46:29;92790.09;;;14.79;97.85
71057;BME280;58380;48.312;9.246;2022-09-14T20:49:00;92786.94;;;14.77;97.92
71057;BME280;58380;48.312;9.246;2022-09-14T20:51:26;92787.41;;;14.71;97.69
71057;BME280;58380;48.312;9.246;2022-09-14T20:53:52;92798.19;;;14.74;98.01
71057;BME280;58380;48.312;9.246;2022-09-14T20:56:22;92803.91;;;14.67;99.21
71057;BME280;58380;48.312;9.246;2022-09-14T20:58:58;92776.66;;;14.53;99.67
71057;BME280;58380;48.312;9.246;2022-09-14T21:01:28;92804.41;;;14.70;99.71
71057;BME280;58380;48.312;9.246;2022-09-14T21:04:02;92803.81;;;14.73;99.44
71057;BME280;58380;48.312;9.246;2022-09-14T21:06:35;92721.78;;;14.26;99.21
71057;BME280;58380;48.312;9.246;2022-09-14T21:09:04;92699.84;;;14.12;99.65
71057;BME280;58380;48.312;9.246;2022-09-14T21:11:31;92733.69;;;14.29;99.16
71057;BME280;58380;48.312;9.246;2022-09-14T21:13:57;92771.34;;;14.53;98.92
71057;BME280;58380;48.312;9.246;2022-09-14T21:16:26;92782.25;;;14.52;98.71
71057;BME280;58380;48.312;9.246;2022-09-14T21:19:01;92793.00;;;14.69;98.27
71057;BME280;58380;48.312;9.246;2022-09-14T21:21:31;92794.88;;;14.69;98.33
71057;BME280;58380;48.312;9.246;2022-09-14T21:23:58;92798.44;;;14.64;98.28
71057;BME280;58380;48.312;9.246;2022-09-14T21:26:25;92758.72;;;14.36;98.10
71057;BME280;58380;48.312;9.246;2022-09-14T21:28:56;92786.69;;;14.56;98.51
71057;BME280;58380;48.312;9.246;2022-09-14T21:31:24;92774.88;;;14.49;98.22
71057;BME280;58380;48.312;9.246;2022-09-14T21:33:54;92793.53;;;14.57;98.28
71057;BME280;58380;48.312;9.246;2022-09-14T21:36:29;92790.88;;;14.57;98.51
71057;BME280;58380;48.312;9.246;2022-09-14T21:38:59;92719.91;;;14.04;98.59
71057;BME280;58380;48.312;9.246;2022-09-14T21:41:33;92799.47;;;14.54;98.71
71057;BME280;58380;48.312;9.246;2022-09-14T21:43:59;92769.16;;;14.33;98.83
71057;BME280;58380;48.312;9.246;2022-09-14T21:46:25;92792.00;;;14.42;98.83
71057;BME280;58380;48.312;9.246;2022-09-14T21:48:51;92773.38;;;14.34;98.89
71057;BME280;58380;48.312;9.246;2022-09-14T21:51:21;92812.13;;;14.57;98.80
71057;BME280;58380;48.312;9.246;2022-09-14T21:53:59;92774.94;;;14.35;99.07
71057;BME280;58380;48.312;9.246;2022-09-14T21:56:28;92763.16;;;14.27;99.34
71057;BME280;58380;48.312;9.246;2022-09-14T21:58:57;92796.28;;;14.52;99.59
71057;BME280;58380;48.312;9.246;2022-09-14T22:01:25;92811.56;;;14.60;99.73
71057;BME280;58380;48.312;9.246;2022-09-14T22:03:52;92789.34;;;14.42;100.00
71057;BME280;58380;48.312;9.246;2022-09-14T22:06:22;92812.50;;;14.64;100.00
71057;BME280;58380;48.312;9.246;2022-09-14T22:08:50;92813.00;;;14.66;100.00
71057;BME280;58380;48.312;9.246;2022-09-14T22:11:22;92784.72;;;14.48;100.00
